Time;durP1;ratioP1;P1;durP2;ratioP2;P2;SDS_P1;SDS_P2;PMS_P1;PMS_P2;Temp;Humidity;BMP_temperature;BMP_pressure;BME280_temperature;BME280_humidity;BME280_pressure;Samples;Min_cycle;Max_cycle;Signal;HPM_P1;HPM_P2
2021/03/02 00:01:01;;;;;;;9.15;6.78;;;;;;;7.26;100.00;103062.81;4920464;29;20123;-74
2021/03/02 00:03:47;;;;;;;11.43;7.35;;;;;;;7.73;100.00;103055.69;4920362;29;20024;-75
2021/03/02 00:06:33;;;;;;;10.60;7.15;;;;;;;7.56;100.00;103061.22;4920059;29;20059;-75
2021/03/02 00:09:20;;;;;;;10.05;7.25;;;;;;;7.83;100.00;103069.91;4907216;29;20068;-75
2021/03/02 00:12:08;;;;;;;10.00;7.38;;;;;;;7.30;100.00;103065.59;4920280;29;20055;-75
2021/03/02 00:14:54;;;;;;;8.93;7.20;;;;;;;7.41;100.00;103065.94;4920358;29;20050;-75
2021/03/02 00:17:47;;;;;;;11.13;7.35;;;;;;;7.69;100.00;103061.66;4920192;29;20063;-75
2021/03/02 00:20:36;;;;;;;9.63;7.40;;;;;;;7.51;100.00;103061.06;4920427;29;20059;-76
2021/03/02 00:23:26;;;;;;;9.68;7.40;;;;;;;7.71;100.00;103065.19;4920148;29;20437;-74
2021/03/02 00:26:18;;;;;;;11.20;7.78;;;;;;;7.61;100.00;103054.41;4919821;29;20028;-75
2021/03/02 00:29:04;;;;;;;10.40;7.18;;;;;;;7.97;100.00;103048.63;4920776;29;20189;-74
2021/03/02 00:31:50;;;;;;;9.55;7.53;;;;;;;7.57;100.00;103045.63;4919974;29;20369;-74
2021/03/02 00:34:38;;;;;;;11.32;7.68;;;;;;;7.70;100.00;103044.25;4920018;29;20040;-74
2021/03/02 00:37:23;;;;;;;8.95;7.25;;;;;;;7.60;100.00;103047.44;4919806;29;20032;-74
2021/03/02 00:40:10;;;;;;;11.52;7.82;;;;;;;7.72;100.00;103051.28;4919787;29;20043;-74
2021/03/02 00:42:57;;;;;;;9.30;7.28;;;;;;;7.79;100.00;103041.94;4919621;29;20389;-74
2021/03/02 00:45:42;;;;;;;10.77;7.00;;;;;;;7.78;100.00;103038.47;4906477;29;20048;-74
2021/03/02 00:48:28;;;;;;;11.20;9.00;;;;;;;7.63;100.00;103042.31;4919519;29;20378;-74
2021/03/02 00:51:14;;;;;;;12.93;9.93;;;;;;;7.16;100.00;103038.16;4919700;29;20473;-75
2021/03/02 00:54:00;;;;;;;12.18;9.00;;;;;;;6.68;100.00;103044.31;4918976;29;20095;-75
2021/03/02 00:56:45;;;;;;;14.18;9.35;;;;;;;7.18;100.00;103039.09;4919745;29;20035;-75
2021/03/02 00:59:31;;;;;;;11.38;8.57;;;;;;;7.54;100.00;103032.47;4919673;29;20055;-74
2021/03/02 01:02:17;;;;;;;11.32;9.05;;;;;;;7.63;100.00;103034.50;4919438;29;20032;-75
2021/03/02 01:05:05;;;;;;;10.82;8.35;;;;;;;7.70;100.00;103023.38;4906155;29;20047;-75
2021/03/02 01:07:50;;;;;;;12.25;8.35;;;;;;;7.79;100.00;103026.28;4919007;29;20084;-75
2021/03/02 01:10:36;;;;;;;11.63;8.15;;;;;;;7.86;100.00;103023.00;4919250;29;20040;-75
2021/03/02 01:13:22;;;;;;;10.57;7.93;;;;;;;7.71;100.00;103026.03;4906307;29;20027;-75
2021/03/02 01:16:08;;;;;;;10.88;8.07;;;;;;;7.72;100.00;103022.59;4918967;29;20043;-74
2021/03/02 01:18:54;;;;;;;11.18;8.32;;;;;;;7.62;100.00;103035.31;4905691;29;20039;-75
2021/03/02 01:21:39;;;;;;;8.77;7.40;;;;;;;7.42;100.00;103032.09;4919122;29;20039;-74
2021/03/02 01:24:25;;;;;;;10.38;8.25;;;;;;;7.18;100.00;103031.28;4918898;29;20339;-74
2021/03/02 01:27:11;;;;;;;11.73;8.32;;;;;;;7.17;100.00;103031.22;4919090;29;20024;-74
2021/03/02 01:29:57;;;;;;;12.82;8.90;;;;;;;7.37;100.00;103022.34;4919342;29;20099;-74
2021/03/02 01:32:42;;;;;;;16.75;10.82;;;;;;;7.47;100.00;103025.28;4919037;29;20059;-75
2021/03/02 01:35:28;;;;;;;18.80;10.90;;;;;;;7.32;100.00;103016.09;4919514;29;20028;-75
2021/03/02 01:38:17;;;;;;;12.68;8.10;;;;;;;7.38;100.00;103025.00;4905496;29;20024;-75
2021/03/02 01:41:03;;;;;;;13.60;7.70;;;;;;;7.13;100.00;103022.44;4918847;29;20491;-74
2021/03/02 01:43:49;;;;;;;11.50;8.40;;;;;;;6.96;100.00;103018.38;4918181;29;20119;-75
2021/03/02 03:02:04;;;;;;;10.70;7.87;;;;;;;7.00;100.00;103024.56;5988973;23;20116;31
2021/03/02 03:04:58;;;;;;;11.73;9.13;;;;;;;7.40;100.00;103019.84;4862153;29;20042;-75
2021/03/02 03:07:51;;;;;;;12.25;8.90;;;;;;;7.14;100.00;103012.88;4866193;29;20053;-74
2021/03/02 03:10:38;;;;;;;12.18;8.90;;;;;;;6.77;100.00;103017.69;4863341;29;20025;-75
2021/03/02 03:13:29;;;;;;;13.35;9.05;;;;;;;7.16;100.00;103013.81;4861326;29;20470;-75
2021/03/02 03:16:18;;;;;;;11.32;8.60;;;;;;;7.56;100.00;103009.91;4862966;29;20101;-76
2021/03/02 03:19:07;;;;;;;12.52;8.82;;;;;;;7.33;100.00;103015.25;4861770;29;20125;-75
2021/03/02 03:21:53;;;;;;;12.27;8.18;;;;;;;7.42;100.00;103016.44;4862421;29;20411;-76
2021/03/02 03:24:39;;;;;;;11.25;8.05;;;;;;;7.18;100.00;103019.97;4861505;29;20116;-76
2021/03/02 03:27:29;;;;;;;11.73;8.52;;;;;;;7.13;100.00;103022.44;4874110;29;20037;-74
2021/03/02 03:30:16;;;;;;;10.30;7.97;;;;;;;7.38;100.00;103013.66;4863730;29;20037;-74
2021/03/02 03:33:07;;;;;;;12.25;8.35;;;;;;;7.54;100.00;103024.66;4866085;29;20025;-75
2021/03/02 03:35:53;;;;;;;11.95;8.77;;;;;;;7.22;100.00;103017.50;4864373;29;20037;-74
2021/03/02 03:38:39;;;;;;;14.15;9.45;;;;;;;7.31;100.00;103022.16;4865205;29;20147;-75
2021/03/02 03:41:25;;;;;;;21.63;15.20;;;;;;;7.45;100.00;103021.75;4877516;29;20041;-75
2021/03/02 03:44:11;;;;;;;16.67;11.90;;;;;;;7.41;100.00;103019.00;4865169;29;20036;-75
2021/03/02 03:46:57;;;;;;;19.27;12.50;;;;;;;7.32;100.00;103014.34;4863402;29;20467;-74
2021/03/02 03:49:43;;;;;;;14.52;10.70;;;;;;;7.04;100.00;103023.84;4864052;29;20043;-75
2021/03/02 03:52:28;;;;;;;13.90;9.27;;;;;;;6.66;100.00;103029.44;4864431;29;20108;-74
2021/03/02 03:55:17;;;;;;;12.40;9.30;;;;;;;7.24;100.00;103030.59;4863924;29;20029;-75
2021/03/02 03:58:03;;;;;;;12.52;8.90;;;;;;;7.19;100.00;103021.75;4863660;29;20034;-75
2021/03/02 04:00:52;;;;;;;13.23;8.60;;;;;;;7.28;100.00;103025.53;4864254;29;20093;-74
2021/03/02 04:03:40;;;;;;;11.13;8.48;;;;;;;7.21;100.00;103020.97;4865129;29;20045;-75
2021/03/02 04:06:26;;;;;;;10.70;7.80;;;;;;;7.43;100.00;103025.16;4864292;29;20352;-74
2021/03/02 04:09:15;;;;;;;13.52;9.20;;;;;;;7.07;100.00;103026.56;4864471;29;20474;-75
2021/03/02 04:12:01;;;;;;;11.18;8.43;;;;;;;6.91;100.00;103021.66;4863979;29;20034;-74
2021/03/02 04:14:48;;;;;;;10.27;8.23;;;;;;;6.43;100.00;103019.97;4864199;29;20033;-74
2021/03/02 04:17:35;;;;;;;12.55;8.68;;;;;;;6.71;100.00;103018.34;4864241;29;20033;-75
2021/03/02 04:20:21;;;;;;;11.65;9.23;;;;;;;6.69;100.00;103017.44;4863433;29;20072;-75
2021/03/02 04:23:07;;;;;;;12.40;9.27;;;;;;;6.84;100.00;103004.03;4865002;29;20030;-75
2021/03/02 04:25:53;;;;;;;14.98;9.68;;;;;;;7.24;100.00;102997.56;4877048;29;20034;-74
2021/03/02 04:28:38;;;;;;;14.70;9.88;;;;;;;7.03;100.00;103007.31;4875757;29;20025;-75
2021/03/02 04:31:24;;;;;;;12.85;9.68;;;;;;;6.84;100.00;102997.13;4863800;29;20048;-74
2021/03/02 04:34:10;;;;;;;11.68;8.75;;;;;;;7.09;100.00;103004.94;4865062;29;20033;-75
2021/03/02 04:36:56;;;;;;;13.32;9.95;;;;;;;6.88;100.00;103018.94;4864641;29;20056;-74
2021/03/02 04:39:42;;;;;;;14.95;10.60;;;;;;;7.17;100.00;103013.88;4862516;29;20026;-74
2021/03/02 04:42:27;;;;;;;13.82;9.93;;;;;;;7.18;100.00;103017.34;4862595;29;20038;-74
2021/03/02 04:45:14;;;;;;;13.13;10.10;;;;;;;7.02;100.00;103018.56;4863735;29;20037;-74
2021/03/02 04:48:00;;;;;;;11.35;9.27;;;;;;;7.18;100.00;103012.13;4863355;29;20112;-74
2021/03/02 04:50:46;;;;;;;11.95;9.23;;;;;;;7.06;100.00;103025.66;4864701;29;20113;-74
2021/03/02 04:53:33;;;;;;;12.10;9.60;;;;;;;6.94;100.00;103020.03;4864507;29;20038;-75
2021/03/02 04:56:19;;;;;;;12.05;9.23;;;;;;;7.31;100.00;103024.75;4876744;29;20045;-75
2021/03/02 04:59:05;;;;;;;13.65;9.30;;;;;;;7.11;100.00;103016.28;4864673;29;20021;-74
2021/03/02 05:01:51;;;;;;;13.43;9.68;;;;;;;7.08;100.00;103023.13;4863471;29;20112;-75
2021/03/02 05:04:37;;;;;;;13.30;9.30;;;;;;;7.10;100.00;103014.50;4864317;29;20467;-74
2021/03/02 05:07:23;;;;;;;15.00;9.68;;;;;;;7.11;100.00;103023.22;4863100;29;20030;-75
2021/03/02 05:10:10;;;;;;;12.30;8.82;;;;;;;7.45;100.00;103015.66;4863314;29;20429;-74
2021/03/02 05:12:55;;;;;;;11.52;9.60;;;;;;;6.92;100.00;103018.22;4862368;29;20036;-76
2021/03/02 05:15:41;;;;;;;11.77;8.60;;;;;;;7.15;100.00;103012.94;4863127;29;20447;-75
2021/03/02 05:18:27;;;;;;;12.90;9.20;;;;;;;7.21;100.00;103012.25;4861728;29;20089;-74
2021/03/02 05:21:13;;;;;;;13.65;10.10;;;;;;;7.00;100.00;103020.25;4864564;29;20037;-75
2021/03/02 05:23:58;;;;;;;13.88;9.48;;;;;;;7.36;100.00;103010.13;4862227;29;20025;-75
2021/03/02 05:26:44;;;;;;;12.77;9.23;;;;;;;7.18;100.00;103009.53;4863491;29;20029;-75
2021/03/02 05:29:30;;;;;;;14.00;10.35;;;;;;;6.75;100.00;103015.03;4862406;29;20037;-74
2021/03/02 05:32:15;;;;;;;12.48;9.15;;;;;;;7.27;100.00;103015.06;4862953;29;20025;-74
2021/03/02 05:35:01;;;;;;;13.55;10.88;;;;;;;7.14;100.00;103011.16;4862955;29;20029;-75
2021/03/02 05:37:47;;;;;;;14.13;10.80;;;;;;;6.75;100.00;103017.63;4862912;29;20057;-75
2021/03/02 05:40:33;;;;;;;12.75;9.15;;;;;;;6.96;100.00;103014.88;4862676;29;20037;-75
2021/03/02 05:43:19;;;;;;;14.25;10.63;;;;;;;6.81;100.00;103007.44;4863523;29;20378;-75
2021/03/02 05:46:05;;;;;;;14.20;10.75;;;;;;;6.70;100.00;103007.88;4861498;29;20045;-75
2021/03/02 05:48:51;;;;;;;18.83;14.23;;;;;;;6.52;100.00;103012.47;4862450;29;20033;-75
2021/03/02 05:51:38;;;;;;;20.52;14.55;;;;;;;6.81;100.00;103015.25;4862441;29;20112;-76
2021/03/02 05:54:24;;;;;;;21.13;14.77;;;;;;;7.12;100.00;103020.63;4862256;29;20072;-76
2021/03/02 05:57:11;;;;;;;18.30;12.90;;;;;;;7.38;100.00;103013.66;4861703;29;20039;-75
2021/03/02 05:59:57;;;;;;;19.58;14.27;;;;;;;7.43;100.00;103012.97;4862146;29;20082;-75
2021/03/02 06:02:43;;;;;;;24.67;16.75;;;;;;;6.96;100.00;103007.97;4862105;29;20053;-74
2021/03/02 06:05:29;;;;;;;24.30;16.65;;;;;;;6.95;100.00;103007.91;4862272;29;20120;-74
2021/03/02 06:08:15;;;;;;;27.33;17.95;;;;;;;7.24;100.00;103013.22;4862044;29;20421;-74
2021/03/02 06:11:34;;;;;;;21.35;14.82;;;;;;;7.18;100.00;103013.03;4862706;29;20120;-75
2021/03/02 06:14:24;;;;;;;17.77;12.88;;;;;;;7.24;100.00;103009.75;4861187;29;20036;-75
2021/03/02 06:17:10;;;;;;;18.63;13.60;;;;;;;7.41;100.00;103014.66;4861376;29;20032;-73
2021/03/02 06:19:56;;;;;;;17.85;12.38;;;;;;;7.22;100.00;103011.41;4860793;29;20025;-75
2021/03/02 06:22:42;;;;;;;17.95;12.50;;;;;;;7.62;100.00;103019.66;4861272;29;20052;-74
2021/03/02 06:25:30;;;;;;;13.77;10.50;;;;;;;7.51;100.00;103024.53;4862258;29;20100;-74
2021/03/02 06:28:42;;;;;;;15.45;11.32;;;;;;;7.22;100.00;103021.84;4862791;29;20108;-74
2021/03/02 06:31:49;;;;;;;15.77;11.43;;;;;;;7.27;100.00;103020.28;4861907;29;20038;-75
2021/03/02 06:34:35;;;;;;;17.20;11.90;;;;;;;7.19;100.00;103013.94;4862683;29;20025;-75
2021/03/02 06:37:21;;;;;;;15.85;10.65;;;;;;;6.54;100.00;103010.78;4861428;29;20060;-75
2021/03/02 06:40:08;;;;;;;15.60;10.57;;;;;;;6.56;100.00;103014.34;4861456;29;20025;-75
2021/03/02 06:42:54;;;;;;;17.83;11.90;;;;;;;6.90;100.00;103018.16;4860984;29;20048;-74
2021/03/02 06:45:49;;;;;;;15.85;12.23;;;;;;;7.05;100.00;103020.41;4862067;29;20371;-75
2021/03/02 06:48:57;;;;;;;14.02;10.13;;;;;;;7.48;100.00;103010.53;4873731;29;20029;-74
2021/03/02 06:51:43;;;;;;;13.77;10.10;;;;;;;7.83;100.00;103012.47;4861541;29;20432;-74
2021/03/02 06:54:31;;;;;;;16.05;10.23;;;;;;;7.76;100.00;103010.53;4861217;29;20025;-73
2021/03/02 06:57:24;;;;;;;14.13;10.25;;;;;;;7.80;100.00;103010.66;4861233;29;20115;-73
2021/03/02 07:00:10;;;;;;;13.45;10.27;;;;;;;7.71;100.00;103006.88;4873336;29;20037;-74
2021/03/02 07:02:56;;;;;;;13.82;10.52;;;;;;;8.00;100.00;103006.06;4860922;29;20109;-74
2021/03/02 07:05:48;;;;;;;14.77;10.50;;;;;;;8.03;100.00;103013.94;4864569;29;20128;-74
2021/03/02 07:08:36;;;;;;;13.10;10.20;;;;;;;7.52;100.00;103004.56;4864378;29;20475;-75
2021/03/02 07:11:22;;;;;;;15.35;10.23;;;;;;;7.54;100.00;103002.88;4865408;29;20041;-74
2021/03/02 07:14:13;;;;;;;14.25;10.93;;;;;;;7.27;100.00;103005.50;4865145;29;20061;-73
2021/03/02 07:16:58;;;;;;;14.63;10.48;;;;;;;7.55;100.00;102997.72;4865091;29;20025;-74
2021/03/02 07:19:46;;;;;;;14.27;10.38;;;;;;;8.02;100.00;103005.25;4864834;29;20113;-75
2021/03/02 07:22:34;;;;;;;17.90;11.65;;;;;;;7.87;100.00;102999.56;4863719;29;20125;-76
2021/03/02 07:25:22;;;;;;;13.93;10.32;;;;;;;7.98;100.00;103000.78;4864655;29;20370;-75
2021/03/02 07:28:10;;;;;;;20.48;13.38;;;;;;;8.28;100.00;102995.59;4864175;29;20097;-74
2021/03/02 07:30:56;;;;;;;17.42;12.85;;;;;;;7.97;100.00;102992.91;4864728;29;20054;-75
2021/03/02 07:33:42;;;;;;;21.48;14.82;;;;;;;8.69;100.00;103001.06;4864624;29;20025;-76
2021/03/02 07:36:38;;;;;;;15.43;11.45;;;;;;;8.50;100.00;102993.63;4863444;29;20112;-74
2021/03/02 07:39:25;;;;;;;16.17;11.05;;;;;;;8.30;100.00;102994.78;4864598;29;20052;-74
2021/03/02 07:42:25;;;;;;;15.00;10.60;;;;;;;8.42;100.00;102994.25;4864535;29;20040;-74
2021/03/02 07:45:16;;;;;;;16.25;11.55;;;;;;;7.62;100.00;102990.97;4864494;29;20044;-74
2021/03/02 07:48:02;;;;;;;15.30;11.95;;;;;;;8.24;100.00;102992.00;4876670;29;20037;-74
2021/03/02 07:51:12;;;;;;;15.52;11.23;;;;;;;8.27;100.00;102991.19;4864363;29;20030;-74
2021/03/02 07:54:16;;;;;;;16.40;11.30;;;;;;;7.68;100.00;102989.41;4864459;29;20025;-76
2021/03/02 07:57:14;;;;;;;15.85;11.52;;;;;;;8.03;100.00;102988.75;4876379;29;20040;-74
2021/03/02 08:00:21;;;;;;;15.52;12.10;;;;;;;8.43;100.00;102990.78;4863804;29;20038;-74
2021/03/02 08:03:18;;;;;;;16.17;11.25;;;;;;;8.18;100.00;102988.28;4863542;29;20132;-74
2021/03/02 08:06:25;;;;;;;14.48;10.15;;;;;;;8.86;100.00;102980.63;4864307;29;20142;-75
2021/03/02 08:09:26;;;;;;;14.68;11.68;;;;;;;9.20;100.00;102983.22;4876269;29;20041;-75
2021/03/02 08:12:23;;;;;;;15.93;11.43;;;;;;;9.01;100.00;102981.00;4875892;29;20472;-75
2021/03/02 08:15:12;;;;;;;15.60;11.38;;;;;;;8.61;100.00;102981.69;4864002;29;20120;-74
2021/03/02 08:18:27;;;;;;;15.30;11.38;;;;;;;8.65;100.00;102980.94;4863860;29;20025;-74
2021/03/02 08:21:20;;;;;;;15.00;11.30;;;;;;;8.73;100.00;102981.16;4862839;29;20451;-74
2021/03/02 08:24:06;;;;;;;13.95;10.52;;;;;;;8.76;100.00;102981.25;4863887;29;20038;-74
2021/03/02 08:26:52;;;;;;;17.70;11.55;;;;;;;8.73;100.00;102984.63;4863016;29;20033;-76
2021/03/02 08:29:47;;;;;;;15.35;10.68;;;;;;;9.04;100.00;102981.06;4862901;29;20034;-74
2021/03/02 08:32:33;;;;;;;14.13;10.27;;;;;;;8.64;100.00;102979.19;4862640;29;20021;-75
2021/03/02 08:35:31;;;;;;;13.93;9.73;;;;;;;8.74;100.00;102981.19;4863907;29;20035;-73
2021/03/02 08:38:19;;;;;;;12.90;10.13;;;;;;;9.51;100.00;102978.75;4863812;29;20543;-74
2021/03/02 08:41:05;;;;;;;14.65;9.48;;;;;;;9.21;100.00;102978.00;4863145;29;20064;-74
2021/03/02 08:43:51;;;;;;;14.90;9.35;;;;;;;8.21;100.00;102972.75;4863773;29;20029;-75
2021/03/02 08:46:37;;;;;;;18.58;11.30;;;;;;;9.17;100.00;102972.69;4865007;29;20049;-75
2021/03/02 08:49:24;;;;;;;11.98;9.45;;;;;;;9.34;100.00;102963.50;4864004;29;20033;-74
2021/03/02 08:52:13;;;;;;;12.95;9.65;;;;;;;9.59;100.00;102965.81;4864115;29;20048;-74
2021/03/02 08:54:59;;;;;;;12.32;9.60;;;;;;;8.69;100.00;102967.09;4864160;29;20040;-75
2021/03/02 08:57:47;;;;;;;17.70;9.60;;;;;;;9.55;100.00;102964.88;4864418;29;20040;-75
2021/03/02 09:00:33;;;;;;;10.63;8.18;;;;;;;9.71;100.00;102966.09;4863765;29;20033;-75
2021/03/02 09:03:23;;;;;;;12.65;9.30;;;;;;;10.03;100.00;102957.19;4864164;29;20091;-75
2021/03/02 09:06:22;;;;;;;14.43;9.40;;;;;;;10.45;100.00;102955.41;4867953;29;20029;-76
2021/03/02 09:09:10;;;;;;;11.05;8.90;;;;;;;10.50;100.00;102958.13;4862901;29;20469;-74
2021/03/02 09:11:58;;;;;;;14.38;10.00;;;;;;;10.64;100.00;102948.78;4864284;29;20049;-73
2021/03/02 09:14:43;;;;;;;15.40;9.13;;;;;;;9.81;100.00;102950.59;4875423;29;20033;-74
2021/03/02 09:17:29;;;;;;;14.20;9.80;;;;;;;9.87;100.00;102955.09;4863868;29;20040;-74
2021/03/02 09:20:15;;;;;;;12.10;9.05;;;;;;;10.59;100.00;102943.47;4864294;29;20112;-73
2021/03/02 09:23:01;;;;;;;11.10;8.52;;;;;;;10.35;100.00;102953.50;4863848;29;20033;-74
2021/03/02 09:25:50;;;;;;;11.32;7.70;;;;;;;10.40;100.00;102943.97;4863739;29;20040;-72
2021/03/02 09:28:35;;;;;;;12.35;8.15;;;;;;;11.00;100.00;102937.16;4861777;29;20029;-73
2021/03/02 09:31:22;;;;;;;12.23;8.40;;;;;;;10.69;100.00;102934.88;4863438;29;20040;-73
2021/03/02 09:34:08;;;;;;;11.75;8.40;;;;;;;10.32;100.00;102935.09;4875715;29;20487;-72
2021/03/02 09:36:53;;;;;;;15.30;10.23;;;;;;;10.42;100.00;102944.00;4863296;29;20051;-73
2021/03/02 09:39:41;;;;;;;11.90;8.57;;;;;;;10.76;100.00;102934.13;4862361;29;20097;-75
2021/03/02 09:42:33;;;;;;;10.18;7.97;;;;;;;11.42;100.00;102932.59;4862445;29;20033;-73
2021/03/02 09:45:19;;;;;;;11.57;8.43;;;;;;;9.77;100.00;102925.22;4863497;29;20108;-73
2021/03/02 09:48:07;;;;;;;12.02;8.82;;;;;;;11.24;100.00;102926.16;4862710;29;20065;-72
2021/03/02 09:50:53;;;;;;;10.80;8.50;;;;;;;11.00;100.00;102912.66;4863199;29;20045;-73
2021/03/02 09:53:39;;;;;;;11.65;8.63;;;;;;;11.26;100.00;102913.97;4863135;29;20045;-73
2021/03/02 09:56:25;;;;;;;10.38;8.55;;;;;;;11.96;100.00;102912.31;4861236;29;20026;-73
2021/03/02 09:59:19;;;;;;;11.13;8.80;;;;;;;11.41;100.00;102915.06;4863399;29;20026;-74
2021/03/02 10:02:07;;;;;;;13.52;8.23;;;;;;;11.27;100.00;102911.34;4862020;29;20041;-73
2021/03/02 10:05:00;;;;;;;12.23;9.02;;;;;;;10.79;100.00;102900.13;4862370;29;20033;-74
2021/03/02 10:07:46;;;;;;;11.00;8.63;;;;;;;10.10;100.00;102898.88;4863055;29;20021;-72
2021/03/02 10:10:39;;;;;;;13.13;9.07;;;;;;;11.01;100.00;102891.72;4863377;29;20502;-73
2021/03/02 10:13:30;;;;;;;16.40;9.48;;;;;;;10.63;100.00;102882.38;4863161;29;20029;-71
2021/03/02 10:16:16;;;;;;;13.98;8.90;;;;;;;11.17;100.00;102879.72;4861469;29;20034;-72
2021/03/02 10:19:06;;;;;;;11.93;9.27;;;;;;;11.74;100.00;102888.41;4862939;29;20025;-72
2021/03/02 10:21:54;;;;;;;12.55;8.48;;;;;;;10.22;100.00;102872.00;4861788;29;20086;-72
2021/03/02 10:24:41;;;;;;;12.57;8.90;;;;;;;10.44;100.00;102875.03;4861303;29;20030;-72
2021/03/02 10:27:27;;;;;;;14.65;8.60;;;;;;;10.77;100.00;102864.25;4861840;29;20037;-72
2021/03/02 10:30:13;;;;;;;15.77;9.07;;;;;;;11.23;100.00;102861.44;4862435;29;20029;-72
2021/03/02 10:32:59;;;;;;;12.60;9.30;;;;;;;11.69;100.00;102854.19;4862660;29;20029;-73
2021/03/02 10:35:44;;;;;;;11.45;9.50;;;;;;;11.72;100.00;102850.72;4874394;29;20053;-73
2021/03/02 10:38:30;;;;;;;12.57;9.63;;;;;;;11.60;100.00;102847.91;4861997;29;20057;-73
2021/03/02 10:41:18;;;;;;;13.63;10.02;;;;;;;12.10;100.00;102852.91;4863000;29;20370;-73
2021/03/02 10:44:05;;;;;;;14.48;9.15;;;;;;;12.27;100.00;102838.19;4860960;29;20048;-74
2021/03/02 10:46:51;;;;;;;12.20;9.07;;;;;;;12.06;100.00;102837.97;4862115;29;20363;-73
2021/03/02 10:49:37;;;;;;;15.48;9.68;;;;;;;11.44;100.00;102831.09;4860977;29;20026;-74
2021/03/02 10:52:23;;;;;;;14.90;9.65;;;;;;;12.24;100.00;102818.88;4862857;29;20029;-73
2021/03/02 10:55:10;;;;;;;16.40;9.60;;;;;;;11.70;100.00;102818.31;4860822;29;20378;-73
2021/03/02 10:57:55;;;;;;;20.35;9.85;;;;;;;11.72;100.00;102812.22;4862375;29;20466;-72
2021/03/02 11:00:41;;;;;;;13.98;9.90;;;;;;;12.16;100.00;102810.94;4862014;29;20030;-73
2021/03/02 11:03:27;;;;;;;12.13;9.38;;;;;;;12.74;100.00;102804.41;4862264;29;20410;-73
2021/03/02 11:06:17;;;;;;;13.55;9.82;;;;;;;12.37;100.00;102797.97;4861161;29;20494;-74
2021/03/02 11:09:04;;;;;;;11.48;9.40;;;;;;;12.54;100.00;102793.72;4874034;29;20469;-74
2021/03/02 11:11:50;;;;;;;14.02;10.32;;;;;;;12.64;100.00;102785.03;4861195;29;20030;-74
2021/03/02 11:14:35;;;;;;;14.35;10.38;;;;;;;12.79;100.00;102784.25;4861710;29;20234;-74
2021/03/02 11:17:21;;;;;;;13.57;10.32;;;;;;;12.93;100.00;102778.19;4861402;29;20037;-74
2021/03/02 11:20:07;;;;;;;14.52;10.80;;;;;;;13.15;100.00;102773.97;4860823;29;20029;-74
2021/03/02 11:22:53;;;;;;;15.98;11.10;;;;;;;13.24;100.00;102774.91;4873763;29;20026;-74
2021/03/02 11:25:39;;;;;;;15.55;11.80;;;;;;;13.22;100.00;102770.50;4860799;29;20109;-74
2021/03/02 11:28:25;;;;;;;16.05;11.52;;;;;;;12.68;100.00;102762.25;4860252;29;20037;-74
2021/03/02 11:31:11;;;;;;;11.93;9.82;;;;;;;11.61;100.00;102761.31;4861133;29;20056;-73
2021/03/02 11:33:57;;;;;;;20.63;10.55;;;;;;;12.03;100.00;102756.50;4862585;29;20037;-74
2021/03/02 11:36:42;;;;;;;12.60;10.30;;;;;;;12.57;100.00;102749.03;4861365;29;20443;-74
2021/03/02 11:39:28;;;;;;;13.77;10.15;;;;;;;13.02;100.00;102757.22;4861312;29;20045;-73
2021/03/02 11:42:14;;;;;;;13.60;10.57;;;;;;;12.25;100.00;102745.28;4862811;29;20085;-74
2021/03/02 11:45:06;;;;;;;12.00;10.38;;;;;;;12.66;100.00;102738.56;4860412;29;20041;-75
2021/03/02 11:48:04;;;;;;;12.40;10.20;;;;;;;12.13;100.00;102726.81;4861334;29;20026;-75
2021/03/02 11:50:50;;;;;;;12.20;10.10;;;;;;;13.12;100.00;102722.19;4861681;29;20029;-75
2021/03/02 11:53:36;;;;;;;12.15;10.85;;;;;;;13.17;100.00;102715.19;4863190;29;20026;-73
2021/03/02 11:56:21;;;;;;;12.43;10.48;;;;;;;13.12;100.00;102719.56;4863954;29;20037;-73
2021/03/02 11:59:07;;;;;;;15.57;10.60;;;;;;;12.56;100.00;102710.47;4876755;29;20040;-74
2021/03/02 12:01:53;;;;;;;12.63;10.13;;;;;;;12.18;100.00;102704.06;4864261;29;20097;-75
2021/03/02 12:04:39;;;;;;;11.60;10.27;;;;;;;12.94;100.00;102697.53;4864019;29;20060;-75
2021/03/02 12:07:25;;;;;;;12.20;10.35;;;;;;;13.60;100.00;102696.00;4864149;29;20029;-74
2021/03/02 12:10:14;;;;;;;13.35;11.18;;;;;;;13.36;100.00;102680.16;4864433;29;20112;-74
2021/03/02 12:12:59;;;;;;;14.75;10.75;;;;;;;13.87;96.66;102680.19;4864120;29;20033;-74
2021/03/02 12:15:45;;;;;;;12.25;10.90;;;;;;;14.31;93.19;102681.09;4863956;29;20056;-73
2021/03/02 12:18:34;;;;;;;14.57;10.35;;;;;;;13.49;96.98;102674.03;4863886;29;20033;-73
2021/03/02 12:21:20;;;;;;;13.18;10.63;;;;;;;13.13;97.97;102671.31;4863593;29;20120;-74
2021/03/02 12:24:06;;;;;;;13.48;10.65;;;;;;;13.28;97.64;102663.47;4864126;29;20046;-74
2021/03/02 12:26:52;;;;;;;14.07;11.60;;;;;;;13.18;98.35;102668.69;4863894;29;20030;-74
2021/03/02 12:29:37;;;;;;;13.68;10.98;;;;;;;13.53;98.96;102652.09;4863260;29;20179;-74
2021/03/02 12:32:23;;;;;;;15.80;11.30;;;;;;;13.40;100.00;102660.84;4863836;29;20056;-75
2021/03/02 12:35:09;;;;;;;12.85;10.35;;;;;;;13.04;99.94;102655.50;4863367;29;20036;-74
2021/03/02 12:37:55;;;;;;;14.35;11.82;;;;;;;12.50;100.00;102656.97;4863686;29;20355;-74
2021/03/02 12:40:41;;;;;;;13.52;10.85;;;;;;;12.97;100.00;102656.34;4862588;29;20049;-74
2021/03/02 12:43:27;;;;;;;14.52;11.88;;;;;;;13.30;100.00;102648.53;4862810;29;20089;-74
2021/03/02 12:46:13;;;;;;;15.00;11.80;;;;;;;13.18;98.88;102648.50;4863730;29;20257;-74
2021/03/02 12:48:59;;;;;;;14.98;12.13;;;;;;;13.34;96.53;102639.75;4862728;29;20136;-75
2021/03/02 12:51:45;;;;;;;16.55;11.88;;;;;;;13.19;97.05;102629.19;4862636;29;20041;-75
2021/03/02 12:54:34;;;;;;;14.65;11.73;;;;;;;13.30;94.65;102637.16;4862790;29;20424;-72
2021/03/02 12:57:21;;;;;;;13.07;10.70;;;;;;;13.10;95.07;102630.97;4863350;29;20044;-73
2021/03/02 13:00:11;;;;;;;14.23;11.15;;;;;;;13.22;93.82;102629.22;4875848;29;20034;-74
2021/03/02 13:03:01;;;;;;;15.85;10.30;;;;;;;13.30;94.36;102631.88;4862301;29;20052;-74
2021/03/02 13:05:47;;;;;;;12.68;10.45;;;;;;;13.21;95.78;102626.56;4862732;29;20048;-75
2021/03/02 13:08:34;;;;;;;15.25;11.10;;;;;;;13.09;95.00;102635.31;4862610;29;20044;-74
2021/03/02 13:11:20;;;;;;;17.33;10.40;;;;;;;12.89;97.53;102631.72;4862658;29;20470;-74
2021/03/02 13:14:07;;;;;;;14.55;10.45;;;;;;;13.07;96.38;102621.28;4863080;29;20033;-75
2021/03/02 13:16:56;;;;;;;14.02;10.45;;;;;;;12.92;97.35;102623.84;4861990;29;20090;-75
2021/03/02 13:19:42;;;;;;;13.73;9.93;;;;;;;13.01;95.57;102617.75;4862124;29;20064;-74
2021/03/02 13:22:28;;;;;;;14.20;9.32;;;;;;;13.59;91.57;102615.22;4863790;29;20462;-74
2021/03/02 13:25:14;;;;;;;11.35;8.93;;;;;;;13.08;93.37;102614.25;4862755;29;20037;-74
2021/03/02 13:28:01;;;;;;;13.75;8.95;;;;;;;13.36;92.66;102616.97;4863539;29;20039;-74
2021/03/02 13:30:52;;;;;;;11.55;8.85;;;;;;;13.47;91.83;102604.66;4862517;29;20034;-74
2021/03/02 13:33:41;;;;;;;9.65;8.05;;;;;;;13.58;90.84;102613.47;4861938;29;20112;-74
2021/03/02 13:36:28;;;;;;;11.15;8.57;;;;;;;13.10;91.20;102608.13;4862574;29;20094;-73
2021/03/02 13:39:17;;;;;;;12.75;8.32;;;;;;;13.26;93.36;102602.00;4863517;29;20102;-73
2021/03/02 13:42:03;;;;;;;13.82;8.40;;;;;;;13.53;92.32;102598.53;4861778;29;20034;-75
2021/03/02 13:44:52;;;;;;;10.73;8.38;;;;;;;13.57;90.91;102598.53;4862479;29;20037;-73
2021/03/02 13:47:38;;;;;;;10.32;7.50;;;;;;;13.38;91.51;102590.63;4863508;29;20029;-73
2021/03/02 13:50:25;;;;;;;11.10;7.85;;;;;;;13.35;92.11;102590.63;4862448;29;20060;-73
2021/03/02 13:53:12;;;;;;;10.30;7.38;;;;;;;13.35;90.19;102585.38;4862416;29;20407;-74
2021/03/02 13:55:58;;;;;;;14.82;7.53;;;;;;;13.58;87.69;102580.97;4863224;29;20021;-74
2021/03/02 13:58:45;;;;;;;9.82;7.38;;;;;;;13.47;88.90;102577.47;4863368;29;20459;-74
2021/03/02 14:01:33;;;;;;;9.48;7.53;;;;;;;13.45;86.99;102572.19;4863099;29;20034;-74